sensor_id;sensor_type;location;lat;lon;timestamp;P1;durP1;ratioP1;P2;durP2;ratioP2
69625;SDS011;56847;51.984;5.088;2023-04-28T00:01:13;8.73;;;5.93;;
69625;SDS011;56847;51.984;5.088;2023-04-28T00:03:40;13.00;;;5.85;;
69625;SDS011;56847;51.984;5.088;2023-04-28T00:06:11;10.50;;;6.45;;
69625;SDS011;56847;51.984;5.088;2023-04-28T00:08:38;8.27;;;5.90;;
69625;SDS011;56847;51.984;5.088;2023-04-28T00:11:08;12.25;;;6.43;;
69625;SDS011;56847;51.984;5.088;2023-04-28T00:13:36;11.40;;;6.90;;
69625;SDS011;56847;51.984;5.088;2023-04-28T00:16:04;13.38;;;7.35;;
69625;SDS011;56847;51.984;5.088;2023-04-28T00:18:31;11.43;;;7.45;;
69625;SDS011;56847;51.984;5.088;2023-04-28T00:20:59;13.23;;;6.88;;
69625;SDS011;56847;51.984;5.088;2023-04-28T00:23:27;12.30;;;7.45;;
69625;SDS011;56847;51.984;5.088;2023-04-28T00:25:54;14.80;;;7.87;;
69625;SDS011;56847;51.984;5.088;2023-04-28T00:28:22;13.10;;;7.82;;
69625;SDS011;56847;51.984;5.088;2023-04-28T00:30:52;12.27;;;8.55;;
69625;SDS011;56847;51.984;5.088;2023-04-28T00:33:19;9.55;;;7.13;;
69625;SDS011;56847;51.984;5.088;2023-04-28T00:35:47;12.77;;;8.07;;
69625;SDS011;56847;51.984;5.088;2023-04-28T00:38:14;14.30;;;8.20;;
69625;SDS011;56847;51.984;5.088;2023-04-28T00:40:41;10.63;;;7.43;;
69625;SDS011;56847;51.984;5.088;2023-04-28T00:43:11;13.65;;;8.32;;
69625;SDS011;56847;51.984;5.088;2023-04-28T00:45:39;13.32;;;8.02;;
69625;SDS011;56847;51.984;5.088;2023-04-28T00:48:06;10.43;;;8.52;;
69625;SDS011;56847;51.984;5.088;2023-04-28T00:50:34;10.43;;;7.00;;
69625;SDS011;56847;51.984;5.088;2023-04-28T00:53:02;13.30;;;8.10;;
69625;SDS011;56847;51.984;5.088;2023-04-28T00:55:30;13.60;;;8.63;;
69625;SDS011;56847;51.984;5.088;2023-04-28T00:57:58;9.85;;;7.82;;
69625;SDS011;56847;51.984;5.088;2023-04-28T01:00:26;10.85;;;8.07;;
69625;SDS011;56847;51.984;5.088;2023-04-28T01:02:53;13.07;;;6.60;;
69625;SDS011;56847;51.984;5.088;2023-04-28T01:05:27;11.57;;;7.75;;
69625;SDS011;56847;51.984;5.088;2023-04-28T01:07:55;10.02;;;7.65;;
69625;SDS011;56847;51.984;5.088;2023-04-28T01:10:22;12.98;;;8.30;;
69625;SDS011;56847;51.984;5.088;2023-04-28T01:12:49;16.77;;;7.70;;
69625;SDS011;56847;51.984;5.088;2023-04-28T01:15:17;12.63;;;6.73;;
69625;SDS011;56847;51.984;5.088;2023-04-28T01:17:49;13.68;;;8.05;;
69625;SDS011;56847;51.984;5.088;2023-04-28T01:20:16;12.35;;;8.20;;
69625;SDS011;56847;51.984;5.088;2023-04-28T01:22:43;10.77;;;8.50;;
69625;SDS011;56847;51.984;5.088;2023-04-28T01:25:11;9.35;;;7.95;;
69625;SDS011;56847;51.984;5.088;2023-04-28T01:27:38;11.43;;;7.47;;
69625;SDS011;56847;51.984;5.088;2023-04-28T01:30:05;12.50;;;7.03;;
69625;SDS011;56847;51.984;5.088;2023-04-28T01:32:33;10.00;;;7.28;;
69625;SDS011;56847;51.984;5.088;2023-04-28T01:35:01;14.65;;;7.70;;
69625;SDS011;56847;51.984;5.088;2023-04-28T01:37:29;11.57;;;7.68;;
69625;SDS011;56847;51.984;5.088;2023-04-28T01:39:56;11.20;;;7.90;;
69625;SDS011;56847;51.984;5.088;2023-04-28T01:42:23;11.98;;;7.18;;
69625;SDS011;56847;51.984;5.088;2023-04-28T01:44:51;11.13;;;8.05;;
69625;SDS011;56847;51.984;5.088;2023-04-28T01:47:18;10.18;;;8.27;;
69625;SDS011;56847;51.984;5.088;2023-04-28T01:49:46;11.05;;;7.82;;
69625;SDS011;56847;51.984;5.088;2023-04-28T01:52:16;12.57;;;8.17;;
69625;SDS011;56847;51.984;5.088;2023-04-28T01:54:45;9.63;;;7.80;;
69625;SDS011;56847;51.984;5.088;2023-04-28T01:57:13;11.63;;;7.78;;
69625;SDS011;56847;51.984;5.088;2023-04-28T01:59:42;14.30;;;7.72;;
69625;SDS011;56847;51.984;5.088;2023-04-28T02:02:10;12.27;;;7.63;;
69625;SDS011;56847;51.984;5.088;2023-04-28T02:04:38;13.23;;;7.80;;
69625;SDS011;56847;51.984;5.088;2023-04-28T02:07:05;11.40;;;6.57;;
69625;SDS011;56847;51.984;5.088;2023-04-28T02:09:33;11.65;;;7.65;;
69625;SDS011;56847;51.984;5.088;2023-04-28T02:12:00;11.65;;;8.25;;
69625;SDS011;56847;51.984;5.088;2023-04-28T02:14:28;9.82;;;7.75;;
69625;SDS011;56847;51.984;5.088;2023-04-28T02:16:57;12.83;;;7.03;;
69625;SDS011;56847;51.984;5.088;2023-04-28T02:19:24;10.10;;;7.00;;
69625;SDS011;56847;51.984;5.088;2023-04-28T02:21:52;10.65;;;7.55;;
69625;SDS011;56847;51.984;5.088;2023-04-28T02:24:19;8.30;;;6.95;;
69625;SDS011;56847;51.984;5.088;2023-04-28T02:26:46;11.45;;;8.05;;
69625;SDS011;56847;51.984;5.088;2023-04-28T02:29:13;15.40;;;8.00;;
69625;SDS011;56847;51.984;5.088;2023-04-28T02:31:40;11.20;;;6.85;;
69625;SDS011;56847;51.984;5.088;2023-04-28T02:34:07;13.13;;;7.30;;
69625;SDS011;56847;51.984;5.088;2023-04-28T02:36:37;11.23;;;6.53;;
69625;SDS011;56847;51.984;5.088;2023-04-28T02:39:06;10.73;;;7.38;;
69625;SDS011;56847;51.984;5.088;2023-04-28T02:41:34;11.63;;;6.40;;
69625;SDS011;56847;51.984;5.088;2023-04-28T02:44:01;8.75;;;6.55;;
69625;SDS011;56847;51.984;5.088;2023-04-28T02:46:29;11.70;;;6.93;;
69625;SDS011;56847;51.984;5.088;2023-04-28T02:48:56;9.55;;;6.75;;
69625;SDS011;56847;51.984;5.088;2023-04-28T02:51:23;11.63;;;6.90;;
69625;SDS011;56847;51.984;5.088;2023-04-28T02:53:50;10.57;;;6.80;;
69625;SDS011;56847;51.984;5.088;2023-04-28T02:56:21;12.15;;;6.78;;
69625;SDS011;56847;51.984;5.088;2023-04-28T02:58:49;12.02;;;7.15;;
69625;SDS011;56847;51.984;5.088;2023-04-28T03:01:16;10.48;;;6.97;;
69625;SDS011;56847;51.984;5.088;2023-04-28T03:03:43;13.98;;;7.40;;
69625;SDS011;56847;51.984;5.088;2023-04-28T03:06:11;12.57;;;6.33;;
69625;SDS011;56847;51.984;5.088;2023-04-28T03:08:38;11.45;;;6.30;;
69625;SDS011;56847;51.984;5.088;2023-04-28T03:11:05;14.95;;;6.80;;
69625;SDS011;56847;51.984;5.088;2023-04-28T03:13:33;12.68;;;6.72;;
69625;SDS011;56847;51.984;5.088;2023-04-28T03:16:01;16.30;;;8.73;;
69625;SDS011;56847;51.984;5.088;2023-04-28T03:18:28;9.63;;;6.27;;
69625;SDS011;56847;51.984;5.088;2023-04-28T03:20:56;9.13;;;6.55;;
69625;SDS011;56847;51.984;5.088;2023-04-28T03:23:25;8.60;;;6.45;;
69625;SDS011;56847;51.984;5.088;2023-04-28T03:25:56;8.32;;;6.25;;
69625;SDS011;56847;51.984;5.088;2023-04-28T03:28:24;10.25;;;7.85;;
69625;SDS011;56847;51.984;5.088;2023-04-28T03:30:51;16.53;;;7.37;;
69625;SDS011;56847;51.984;5.088;2023-04-28T03:33:22;8.90;;;6.35;;
69625;SDS011;56847;51.984;5.088;2023-04-28T03:35:49;12.00;;;7.00;;
69625;SDS011;56847;51.984;5.088;2023-04-28T03:38:16;7.72;;;6.88;;
69625;SDS011;56847;51.984;5.088;2023-04-28T03:40:44;10.00;;;6.20;;
69625;SDS011;56847;51.984;5.088;2023-04-28T03:43:31;7.47;;;6.17;;
69625;SDS011;56847;51.984;5.088;2023-04-28T03:46:15;7.47;;;6.55;;
69625;SDS011;56847;51.984;5.088;2023-04-28T03:48:42;7.97;;;7.18;;
69625;SDS011;56847;51.984;5.088;2023-04-28T03:51:11;7.47;;;6.32;;
69625;SDS011;56847;51.984;5.088;2023-04-28T03:53:40;10.48;;;6.63;;
69625;SDS011;56847;51.984;5.088;2023-04-28T03:56:07;11.00;;;6.43;;
69625;SDS011;56847;51.984;5.088;2023-04-28T03:58:34;8.98;;;7.53;;
69625;SDS011;56847;51.984;5.088;2023-04-28T04:01:02;10.35;;;7.50;;
69625;SDS011;56847;51.984;5.088;2023-04-28T04:03:29;14.80;;;6.57;;
69625;SDS011;56847;51.984;5.088;2023-04-28T04:05:56;19.23;;;7.30;;
69625;SDS011;56847;51.984;5.088;2023-04-28T04:08:23;12.80;;;7.40;;
69625;SDS011;56847;51.984;5.088;2023-04-28T04:10:51;8.48;;;7.05;;
69625;SDS011;56847;51.984;5.088;2023-04-28T04:13:21;12.60;;;7.28;;
69625;SDS011;56847;51.984;5.088;2023-04-28T04:15:48;15.93;;;7.65;;
69625;SDS011;56847;51.984;5.088;2023-04-28T04:18:16;10.30;;;7.38;;
69625;SDS011;56847;51.984;5.088;2023-04-28T04:21:08;11.50;;;7.90;;
69625;SDS011;56847;51.984;5.088;2023-04-28T04:23:35;14.43;;;7.20;;
69625;SDS011;56847;51.984;5.088;2023-04-28T04:26:03;11.90;;;7.72;;
69625;SDS011;56847;51.984;5.088;2023-04-28T04:28:30;9.18;;;7.03;;
69625;SDS011;56847;51.984;5.088;2023-04-28T04:30:58;16.35;;;6.57;;
69625;SDS011;56847;51.984;5.088;2023-04-28T04:33:25;10.33;;;7.63;;
69625;SDS011;56847;51.984;5.088;2023-04-28T04:35:52;13.45;;;7.68;;
69625;SDS011;56847;51.984;5.088;2023-04-28T04:38:19;11.70;;;7.47;;
69625;SDS011;56847;51.984;5.088;2023-04-28T04:40:47;11.25;;;8.05;;
69625;SDS011;56847;51.984;5.088;2023-04-28T04:43:14;13.55;;;9.25;;
69625;SDS011;56847;51.984;5.088;2023-04-28T04:45:45;11.30;;;7.47;;
69625;SDS011;56847;51.984;5.088;2023-04-28T04:48:13;13.15;;;8.15;;
69625;SDS011;56847;51.984;5.088;2023-04-28T04:50:40;14.52;;;8.48;;
69625;SDS011;56847;51.984;5.088;2023-04-28T04:53:08;15.77;;;8.30;;
69625;SDS011;56847;51.984;5.088;2023-04-28T04:55:43;12.43;;;8.40;;
69625;SDS011;56847;51.984;5.088;2023-04-28T04:58:10;10.23;;;7.63;;
69625;SDS011;56847;51.984;5.088;2023-04-28T05:01:03;15.18;;;8.57;;
69625;SDS011;56847;51.984;5.088;2023-04-28T05:03:33;12.85;;;7.90;;
69625;SDS011;56847;51.984;5.088;2023-04-28T05:06:00;13.93;;;8.02;;
69625;SDS011;56847;51.984;5.088;2023-04-28T05:08:44;19.45;;;8.73;;
69625;SDS011;56847;51.984;5.088;2023-04-28T05:11:11;14.00;;;8.27;;
69625;SDS011;56847;51.984;5.088;2023-04-28T05:13:39;15.23;;;8.63;;
69625;SDS011;56847;51.984;5.088;2023-04-28T05:16:06;16.58;;;8.50;;
69625;SDS011;56847;51.984;5.088;2023-04-28T05:18:46;13.75;;;8.73;;
69625;SDS011;56847;51.984;5.088;2023-04-28T05:21:17;13.95;;;8.73;;
69625;SDS011;56847;51.984;5.088;2023-04-28T05:23:50;14.27;;;9.17;;
69625;SDS011;56847;51.984;5.088;2023-04-28T05:26:17;12.02;;;8.70;;
69625;SDS011;56847;51.984;5.088;2023-04-28T05:28:45;14.40;;;9.32;;
69625;SDS011;56847;51.984;5.088;2023-04-28T05:31:13;13.00;;;9.38;;
69625;SDS011;56847;51.984;5.088;2023-04-28T05:33:41;17.65;;;10.88;;
69625;SDS011;56847;51.984;5.088;2023-04-28T05:36:08;21.03;;;10.53;;
69625;SDS011;56847;51.984;5.088;2023-04-28T05:38:36;21.33;;;11.10;;
69625;SDS011;56847;51.984;5.088;2023-04-28T05:41:03;17.88;;;11.70;;
69625;SDS011;56847;51.984;5.088;2023-04-28T05:43:31;15.02;;;10.10;;
69625;SDS011;56847;51.984;5.088;2023-04-28T05:46:01;15.20;;;10.57;;
69625;SDS011;56847;51.984;5.088;2023-04-28T05:48:47;14.83;;;10.03;;
69625;SDS011;56847;51.984;5.088;2023-04-28T05:51:17;19.10;;;12.07;;
69625;SDS011;56847;51.984;5.088;2023-04-28T05:53:44;20.30;;;12.00;;
69625;SDS011;56847;51.984;5.088;2023-04-28T05:56:16;19.88;;;11.80;;
69625;SDS011;56847;51.984;5.088;2023-04-28T05:59:01;15.15;;;11.27;;
69625;SDS011;56847;51.984;5.088;2023-04-28T06:01:30;17.30;;;12.23;;
69625;SDS011;56847;51.984;5.088;2023-04-28T06:03:57;21.33;;;13.07;;
69625;SDS011;56847;51.984;5.088;2023-04-28T06:06:27;16.08;;;11.95;;
69625;SDS011;56847;51.984;5.088;2023-04-28T06:08:54;25.08;;;11.40;;
69625;SDS011;56847;51.984;5.088;2023-04-28T06:11:21;17.67;;;12.68;;
69625;SDS011;56847;51.984;5.088;2023-04-28T06:13:49;20.57;;;12.20;;
69625;SDS011;56847;51.984;5.088;2023-04-28T06:16:17;20.35;;;11.98;;
69625;SDS011;56847;51.984;5.088;2023-04-28T06:18:45;24.58;;;13.98;;
69625;SDS011;56847;51.984;5.088;2023-04-28T06:21:16;28.52;;;13.45;;
69625;SDS011;56847;51.984;5.088;2023-04-28T06:23:43;24.45;;;13.50;;
69625;SDS011;56847;51.984;5.088;2023-04-28T06:26:10;21.50;;;13.17;;
69625;SDS011;56847;51.984;5.088;2023-04-28T06:28:38;22.58;;;13.15;;
69625;SDS011;56847;51.984;5.088;2023-04-28T06:31:06;20.23;;;13.70;;
69625;SDS011;56847;51.984;5.088;2023-04-28T06:33:34;20.60;;;14.18;;
69625;SDS011;56847;51.984;5.088;2023-04-28T06:36:01;19.65;;;13.65;;
69625;SDS011;56847;51.984;5.088;2023-04-28T06:38:27;22.47;;;13.73;;
69625;SDS011;56847;51.984;5.088;2023-04-28T06:40:55;24.52;;;14.35;;
69625;SDS011;56847;51.984;5.088;2023-04-28T06:43:22;21.85;;;14.07;;
69625;SDS011;56847;51.984;5.088;2023-04-28T06:46:03;18.92;;;13.48;;
69625;SDS011;56847;51.984;5.088;2023-04-28T06:48:31;23.27;;;15.18;;
69625;SDS011;56847;51.984;5.088;2023-04-28T06:50:58;27.23;;;14.03;;
69625;SDS011;56847;51.984;5.088;2023-04-28T06:53:29;23.75;;;14.45;;
69625;SDS011;56847;51.984;5.088;2023-04-28T06:55:57;21.77;;;15.35;;
69625;SDS011;56847;51.984;5.088;2023-04-28T06:58:26;21.20;;;14.18;;
69625;SDS011;56847;51.984;5.088;2023-04-28T07:00:53;21.92;;;14.27;;
69625;SDS011;56847;51.984;5.088;2023-04-28T07:03:21;21.53;;;14.13;;
69625;SDS011;56847;51.984;5.088;2023-04-28T07:05:48;21.63;;;14.65;;
69625;SDS011;56847;51.984;5.088;2023-04-28T07:08:15;21.67;;;15.35;;
69625;SDS011;56847;51.984;5.088;2023-04-28T07:10:43;25.73;;;14.45;;
69625;SDS011;56847;51.984;5.088;2023-04-28T07:13:10;24.90;;;16.25;;
69625;SDS011;56847;51.984;5.088;2023-04-28T07:15:37;21.27;;;14.40;;
69625;SDS011;56847;51.984;5.088;2023-04-28T07:18:09;22.48;;;15.15;;
69625;SDS011;56847;51.984;5.088;2023-04-28T07:20:37;24.17;;;16.75;;
69625;SDS011;56847;51.984;5.088;2023-04-28T07:23:04;24.45;;;15.95;;
69625;SDS011;56847;51.984;5.088;2023-04-28T07:25:31;29.35;;;16.52;;
69625;SDS011;56847;51.984;5.088;2023-04-28T07:27:58;23.43;;;15.77;;
69625;SDS011;56847;51.984;5.088;2023-04-28T07:30:28;20.30;;;14.93;;
69625;SDS011;56847;51.984;5.088;2023-04-28T07:32:55;23.45;;;16.65;;
69625;SDS011;56847;51.984;5.088;2023-04-28T07:35:23;24.25;;;16.10;;
69625;SDS011;56847;51.984;5.088;2023-04-28T07:37:51;26.20;;;16.25;;
69625;SDS011;56847;51.984;5.088;2023-04-28T07:40:18;26.30;;;15.70;;
69625;SDS011;56847;51.984;5.088;2023-04-28T07:42:46;22.30;;;16.20;;
69625;SDS011;56847;51.984;5.088;2023-04-28T07:45:13;25.73;;;16.92;;
69625;SDS011;56847;51.984;5.088;2023-04-28T07:47:41;27.25;;;16.50;;
69625;SDS011;56847;51.984;5.088;2023-04-28T07:50:09;28.63;;;17.13;;
69625;SDS011;56847;51.984;5.088;2023-04-28T07:52:37;28.37;;;18.17;;
69625;SDS011;56847;51.984;5.088;2023-04-28T07:55:05;27.63;;;18.70;;
69625;SDS011;56847;51.984;5.088;2023-04-28T07:57:32;24.77;;;17.88;;
69625;SDS011;56847;51.984;5.088;2023-04-28T07:59:59;30.17;;;17.75;;
69625;SDS011;56847;51.984;5.088;2023-04-28T08:02:36;27.23;;;18.35;;
69625;SDS011;56847;51.984;5.088;2023-04-28T08:05:04;27.50;;;17.30;;
69625;SDS011;56847;51.984;5.088;2023-04-28T08:07:35;28.25;;;16.83;;
69625;SDS011;56847;51.984;5.088;2023-04-28T08:10:03;32.20;;;20.55;;
69625;SDS011;56847;51.984;5.088;2023-04-28T08:12:30;29.10;;;18.13;;
69625;SDS011;56847;51.984;5.088;2023-04-28T08:14:58;28.92;;;20.52;;
69625;SDS011;56847;51.984;5.088;2023-04-28T08:17:25;34.03;;;21.60;;
69625;SDS011;56847;51.984;5.088;2023-04-28T08:19:59;25.75;;;18.45;;
69625;SDS011;56847;51.984;5.088;2023-04-28T08:22:26;26.98;;;18.88;;
69625;SDS011;56847;51.984;5.088;2023-04-28T08:24:53;31.15;;;18.38;;
69625;SDS011;56847;51.984;5.088;2023-04-28T08:27:20;32.33;;;20.05;;
69625;SDS011;56847;51.984;5.088;2023-04-28T08:29:48;26.60;;;20.30;;
69625;SDS011;56847;51.984;5.088;2023-04-28T08:32:15;26.30;;;18.38;;
69625;SDS011;56847;51.984;5.088;2023-04-28T08:34:42;27.17;;;17.83;;
69625;SDS011;56847;51.984;5.088;2023-04-28T08:37:09;26.05;;;18.23;;
69625;SDS011;56847;51.984;5.088;2023-04-28T08:39:36;26.65;;;18.88;;
69625;SDS011;56847;51.984;5.088;2023-04-28T08:42:05;22.07;;;15.67;;
69625;SDS011;56847;51.984;5.088;2023-04-28T08:44:35;24.35;;;18.42;;
69625;SDS011;56847;51.984;5.088;2023-04-28T08:47:12;25.80;;;17.13;;
69625;SDS011;56847;51.984;5.088;2023-04-28T08:49:43;27.63;;;17.40;;
69625;SDS011;56847;51.984;5.088;2023-04-28T08:52:11;23.90;;;17.88;;
69625;SDS011;56847;51.984;5.088;2023-04-28T08:54:44;25.37;;;18.40;;
69625;SDS011;56847;51.984;5.088;2023-04-28T08:57:14;28.20;;;19.92;;
69625;SDS011;56847;51.984;5.088;2023-04-28T08:59:41;24.13;;;18.30;;
69625;SDS011;56847;51.984;5.088;2023-04-28T09:02:08;22.98;;;18.17;;
69625;SDS011;56847;51.984;5.088;2023-04-28T09:04:36;24.17;;;18.75;;
69625;SDS011;56847;51.984;5.088;2023-04-28T09:07:09;26.73;;;20.67;;
69625;SDS011;56847;51.984;5.088;2023-04-28T09:09:37;27.48;;;19.48;;
69625;SDS011;56847;51.984;5.088;2023-04-28T09:12:05;24.17;;;18.98;;
69625;SDS011;56847;51.984;5.088;2023-04-28T09:14:33;23.75;;;19.13;;
69625;SDS011;56847;51.984;5.088;2023-04-28T09:17:11;30.00;;;21.77;;
69625;SDS011;56847;51.984;5.088;2023-04-28T09:19:39;25.13;;;20.20;;
69625;SDS011;56847;51.984;5.088;2023-04-28T09:22:08;21.83;;;17.52;;
69625;SDS011;56847;51.984;5.088;2023-04-28T09:24:51;23.42;;;19.38;;
69625;SDS011;56847;51.984;5.088;2023-04-28T09:27:25;23.25;;;17.15;;
69625;SDS011;56847;51.984;5.088;2023-04-28T09:29:53;25.95;;;18.40;;
69625;SDS011;56847;51.984;5.088;2023-04-28T09:32:21;20.90;;;16.07;;
69625;SDS011;56847;51.984;5.088;2023-04-28T09:34:52;21.02;;;16.63;;
69625;SDS011;56847;51.984;5.088;2023-04-28T09:37:23;22.63;;;17.42;;
69625;SDS011;56847;51.984;5.088;2023-04-28T09:39:51;22.98;;;15.68;;
69625;SDS011;56847;51.984;5.088;2023-04-28T09:45:06;21.67;;;15.30;;
69625;SDS011;56847;51.984;5.088;2023-04-28T09:47:39;20.85;;;15.55;;
69625;SDS011;56847;51.984;5.088;2023-04-28T09:50:11;23.27;;;17.80;;
69625;SDS011;56847;51.984;5.088;2023-04-28T09:52:41;21.17;;;15.50;;
69625;SDS011;56847;51.984;5.088;2023-04-28T09:55:11;23.58;;;15.95;;
69625;SDS011;56847;51.984;5.088;2023-04-28T09:57:38;24.40;;;17.07;;
69625;SDS011;56847;51.984;5.088;2023-04-28T10:00:06;21.38;;;16.27;;
69625;SDS011;56847;51.984;5.088;2023-04-28T10:02:37;26.20;;;18.25;;
69625;SDS011;56847;51.984;5.088;2023-04-28T10:05:07;23.15;;;16.38;;
69625;SDS011;56847;51.984;5.088;2023-04-28T10:07:36;22.05;;;16.95;;
69625;SDS011;56847;51.984;5.088;2023-04-28T10:10:05;21.73;;;16.33;;
69625;SDS011;56847;51.984;5.088;2023-04-28T10:12:33;14.02;;;10.40;;
69625;SDS011;56847;51.984;5.088;2023-04-28T10:15:04;22.30;;;16.10;;
69625;SDS011;56847;51.984;5.088;2023-04-28T10:17:35;23.02;;;15.95;;
69625;SDS011;56847;51.984;5.088;2023-04-28T10:20:04;26.25;;;17.85;;
69625;SDS011;56847;51.984;5.088;2023-04-28T10:27:40;24.45;;;17.42;;
69625;SDS011;56847;51.984;5.088;2023-04-28T10:30:12;21.30;;;14.55;;
69625;SDS011;56847;51.984;5.088;2023-04-28T10:32:44;24.83;;;17.83;;
69625;SDS011;56847;51.984;5.088;2023-04-28T10:43:13;16.63;;;11.63;;
69625;SDS011;56847;51.984;5.088;2023-04-28T10:56:22;13.93;;;7.88;;
69625;SDS011;56847;51.984;5.088;2023-04-28T10:58:58;13.95;;;9.38;;
69625;SDS011;56847;51.984;5.088;2023-04-28T11:01:26;10.03;;;8.17;;
69625;SDS011;56847;51.984;5.088;2023-04-28T11:14:36;15.60;;;9.23;;
69625;SDS011;56847;51.984;5.088;2023-04-28T11:17:07;18.73;;;10.35;;
69625;SDS011;56847;51.984;5.088;2023-04-28T11:19:40;15.32;;;10.38;;
69625;SDS011;56847;51.984;5.088;2023-04-28T11:22:15;13.27;;;8.98;;
69625;SDS011;56847;51.984;5.088;2023-04-28T11:25:00;9.60;;;7.45;;
69625;SDS011;56847;51.984;5.088;2023-04-28T11:27:29;10.47;;;7.97;;
69625;SDS011;56847;51.984;5.088;2023-04-28T11:30:02;10.05;;;7.15;;
69625;SDS011;56847;51.984;5.088;2023-04-28T11:32:32;10.00;;;6.80;;
69625;SDS011;56847;51.984;5.088;2023-04-28T11:35:00;8.30;;;5.65;;
69625;SDS011;56847;51.984;5.088;2023-04-28T11:37:29;6.88;;;5.40;;
69625;SDS011;56847;51.984;5.088;2023-04-28T11:39:57;9.17;;;5.30;;
69625;SDS011;56847;51.984;5.088;2023-04-28T11:42:24;5.88;;;4.60;;
69625;SDS011;56847;51.984;5.088;2023-04-28T11:44:53;9.70;;;5.35;;
69625;SDS011;56847;51.984;5.088;2023-04-28T11:47:30;8.10;;;5.55;;
69625;SDS011;56847;51.984;5.088;2023-04-28T11:49:59;7.03;;;5.88;;
69625;SDS011;56847;51.984;5.088;2023-04-28T11:52:28;9.97;;;6.33;;
69625;SDS011;56847;51.984;5.088;2023-04-28T11:54:56;7.30;;;5.68;;
69625;SDS011;56847;51.984;5.088;2023-04-28T11:57:26;5.63;;;4.80;;
69625;SDS011;56847;51.984;5.088;2023-04-28T12:00:15;6.82;;;4.10;;
69625;SDS011;56847;51.984;5.088;2023-04-28T12:02:47;9.30;;;6.68;;
69625;SDS011;56847;51.984;5.088;2023-04-28T12:05:15;8.87;;;4.93;;
69625;SDS011;56847;51.984;5.088;2023-04-28T12:07:43;7.10;;;5.32;;
69625;SDS011;56847;51.984;5.088;2023-04-28T12:10:12;7.93;;;4.97;;
69625;SDS011;56847;51.984;5.088;2023-04-28T12:12:44;5.57;;;4.07;;
69625;SDS011;56847;51.984;5.088;2023-04-28T12:15:18;6.10;;;4.25;;
69625;SDS011;56847;51.984;5.088;2023-04-28T12:17:48;4.47;;;4.03;;
69625;SDS011;56847;51.984;5.088;2023-04-28T12:20:32;5.53;;;3.47;;
69625;SDS011;56847;51.984;5.088;2023-04-28T12:23:02;3.40;;;3.05;;
69625;SDS011;56847;51.984;5.088;2023-04-28T12:25:31;2.03;;;1.65;;
69625;SDS011;56847;51.984;5.088;2023-04-28T12:28:01;5.15;;;3.30;;
69625;SDS011;56847;51.984;5.088;2023-04-28T12:30:45;3.00;;;2.30;;
69625;SDS011;56847;51.984;5.088;2023-04-28T12:33:21;4.00;;;2.67;;
69625;SDS011;56847;51.984;5.088;2023-04-28T12:35:50;3.50;;;3.17;;
69625;SDS011;56847;51.984;5.088;2023-04-28T12:38:21;3.70;;;3.08;;
69625;SDS011;56847;51.984;5.088;2023-04-28T12:40:54;2.97;;;2.78;;
69625;SDS011;56847;51.984;5.088;2023-04-28T12:43:21;3.13;;;2.73;;
69625;SDS011;56847;51.984;5.088;2023-04-28T12:45:55;3.15;;;2.42;;
69625;SDS011;56847;51.984;5.088;2023-04-28T12:48:30;2.70;;;2.50;;
69625;SDS011;56847;51.984;5.088;2023-04-28T12:50:58;1.83;;;1.58;;
69625;SDS011;56847;51.984;5.088;2023-04-28T12:53:27;2.58;;;2.38;;
69625;SDS011;56847;51.984;5.088;2023-04-28T12:56:00;2.20;;;1.90;;
69625;SDS011;56847;51.984;5.088;2023-04-28T12:58:29;4.88;;;2.60;;
69625;SDS011;56847;51.984;5.088;2023-04-28T13:00:57;4.97;;;3.72;;
69625;SDS011;56847;51.984;5.088;2023-04-28T13:03:24;3.85;;;3.55;;
69625;SDS011;56847;51.984;5.088;2023-04-28T13:05:55;3.70;;;3.40;;
69625;SDS011;56847;51.984;5.088;2023-04-28T13:08:24;4.80;;;4.07;;
69625;SDS011;56847;51.984;5.088;2023-04-28T13:10:51;4.13;;;3.78;;
69625;SDS011;56847;51.984;5.088;2023-04-28T13:13:18;4.80;;;4.40;;
69625;SDS011;56847;51.984;5.088;2023-04-28T13:15:46;3.08;;;2.85;;
69625;SDS011;56847;51.984;5.088;2023-04-28T13:18:13;6.07;;;5.32;;
69625;SDS011;56847;51.984;5.088;2023-04-28T13:20:40;4.67;;;4.27;;
69625;SDS011;56847;51.984;5.088;2023-04-28T13:23:07;4.22;;;3.90;;
69625;SDS011;56847;51.984;5.088;2023-04-28T13:25:38;3.63;;;3.33;;
69625;SDS011;56847;51.984;5.088;2023-04-28T13:28:09;4.88;;;4.47;;
69625;SDS011;56847;51.984;5.088;2023-04-28T13:30:40;4.50;;;4.15;;
69625;SDS011;56847;51.984;5.088;2023-04-28T13:33:09;2.60;;;2.40;;
69625;SDS011;56847;51.984;5.088;2023-04-28T13:35:39;3.78;;;3.33;;
69625;SDS011;56847;51.984;5.088;2023-04-28T13:38:06;4.55;;;3.63;;
69625;SDS011;56847;51.984;5.088;2023-04-28T13:40:36;3.67;;;3.38;;
69625;SDS011;56847;51.984;5.088;2023-04-28T13:43:04;5.03;;;4.53;;
69625;SDS011;56847;51.984;5.088;2023-04-28T13:45:31;4.40;;;4.00;;
69625;SDS011;56847;51.984;5.088;2023-04-28T13:47:58;4.88;;;4.47;;
69625;SDS011;56847;51.984;5.088;2023-04-28T13:50:27;5.30;;;4.80;;
69625;SDS011;56847;51.984;5.088;2023-04-28T13:52:55;4.80;;;4.28;;
69625;SDS011;56847;51.984;5.088;2023-04-28T13:55:22;5.88;;;5.25;;
69625;SDS011;56847;51.984;5.088;2023-04-28T13:58:00;5.30;;;4.90;;
69625;SDS011;56847;51.984;5.088;2023-04-28T14:00:30;4.38;;;3.97;;
69625;SDS011;56847;51.984;5.088;2023-04-28T14:02:58;6.03;;;4.93;;
69625;SDS011;56847;51.984;5.088;2023-04-28T14:05:27;6.53;;;5.78;;
69625;SDS011;56847;51.984;5.088;2023-04-28T14:08:01;5.85;;;5.35;;
69625;SDS011;56847;51.984;5.088;2023-04-28T14:10:29;5.90;;;5.30;;
69625;SDS011;56847;51.984;5.088;2023-04-28T14:12:56;9.07;;;5.90;;
69625;SDS011;56847;51.984;5.088;2023-04-28T14:15:25;8.93;;;7.28;;
69625;SDS011;56847;51.984;5.088;2023-04-28T14:18:00;6.65;;;6.05;;
69625;SDS011;56847;51.984;5.088;2023-04-28T14:20:29;8.27;;;7.47;;
69625;SDS011;56847;51.984;5.088;2023-04-28T14:22:56;8.57;;;6.97;;
69625;SDS011;56847;51.984;5.088;2023-04-28T14:25:23;8.75;;;6.63;;
69625;SDS011;56847;51.984;5.088;2023-04-28T14:27:51;18.00;;;10.65;;
69625;SDS011;56847;51.984;5.088;2023-04-28T14:30:19;16.13;;;11.10;;
69625;SDS011;56847;51.984;5.088;2023-04-28T14:32:49;19.23;;;11.10;;
69625;SDS011;56847;51.984;5.088;2023-04-28T14:35:25;19.57;;;12.27;;
69625;SDS011;56847;51.984;5.088;2023-04-28T14:37:53;17.80;;;10.63;;
69625;SDS011;56847;51.984;5.088;2023-04-28T14:40:20;25.40;;;13.95;;
69625;SDS011;56847;51.984;5.088;2023-04-28T14:42:48;18.77;;;12.07;;
69625;SDS011;56847;51.984;5.088;2023-04-28T14:45:17;18.92;;;11.55;;
69625;SDS011;56847;51.984;5.088;2023-04-28T14:47:45;18.70;;;10.97;;
69625;SDS011;56847;51.984;5.088;2023-04-28T14:50:12;17.92;;;10.93;;
69625;SDS011;56847;51.984;5.088;2023-04-28T14:52:43;20.98;;;12.88;;
69625;SDS011;56847;51.984;5.088;2023-04-28T14:55:14;20.15;;;12.05;;
69625;SDS011;56847;51.984;5.088;2023-04-28T14:57:41;22.73;;;11.98;;
69625;SDS011;56847;51.984;5.088;2023-04-28T15:00:08;15.13;;;8.43;;
69625;SDS011;56847;51.984;5.088;2023-04-28T15:02:36;18.20;;;8.98;;
69625;SDS011;56847;51.984;5.088;2023-04-28T15:05:04;18.95;;;12.45;;
69625;SDS011;56847;51.984;5.088;2023-04-28T15:07:31;17.63;;;11.57;;
69625;SDS011;56847;51.984;5.088;2023-04-28T15:09:59;24.60;;;14.10;;
69625;SDS011;56847;51.984;5.088;2023-04-28T15:12:27;24.27;;;15.47;;
69625;SDS011;56847;51.984;5.088;2023-04-28T15:14:57;24.40;;;13.63;;
69625;SDS011;56847;51.984;5.088;2023-04-28T15:17:24;25.15;;;14.00;;
69625;SDS011;56847;51.984;5.088;2023-04-28T15:19:51;24.63;;;12.20;;
69625;SDS011;56847;51.984;5.088;2023-04-28T15:22:18;18.70;;;11.73;;